sensor_id;sensor_type;location;lat;lon;timestamp;pressure;altitude;pressure_sealevel;temperature;humidity
22031;BME280;11179;52.106;21.024;2022-09-09T00:00:23;100193.00;;;11.63;67.63
22031;BME280;11179;52.106;21.024;2022-09-09T00:02:58;100179.47;;;11.51;68.45
22031;BME280;11179;52.106;21.024;2022-09-09T00:08:03;100176.69;;;11.41;68.99
22031;BME280;11179;52.106;21.024;2022-09-09T00:10:38;100181.88;;;11.32;69.51
22031;BME280;11179;52.106;21.024;2022-09-09T00:13:13;100192.28;;;11.25;70.33
22031;BME280;11179;52.106;21.024;2022-09-09T00:21:17;100196.28;;;11.07;71.64
22031;BME280;11179;52.106;21.024;2022-09-09T00:23:50;100171.53;;;11.02;71.82
22031;BME280;11179;52.106;21.024;2022-09-09T00:26:20;100186.09;;;11.03;71.75
22031;BME280;11179;52.106;21.024;2022-09-09T00:31:21;100190.72;;;10.97;71.88
22031;BME280;11179;52.106;21.024;2022-09-09T00:33:49;100193.72;;;10.96;72.46
22031;BME280;11179;52.106;21.024;2022-09-09T00:36:21;100188.75;;;10.93;72.39
22031;BME280;11179;52.106;21.024;2022-09-09T00:38:56;100172.06;;;10.99;72.02
22031;BME280;11179;52.106;21.024;2022-09-09T00:44:34;100181.44;;;11.08;71.41
22031;BME280;11179;52.106;21.024;2022-09-09T00:50:00;100184.22;;;11.13;70.96
22031;BME280;11179;52.106;21.024;2022-09-09T00:58:07;100188.91;;;11.13;71.75
22031;BME280;11179;52.106;21.024;2022-09-09T01:03:29;100182.09;;;11.20;71.01
22031;BME280;11179;52.106;21.024;2022-09-09T01:06:03;100182.56;;;11.12;71.74
22031;BME280;11179;52.106;21.024;2022-09-09T01:08:42;100186.66;;;11.05;72.49
22031;BME280;11179;52.106;21.024;2022-09-09T01:11:16;100174.28;;;11.07;72.16
22031;BME280;11179;52.106;21.024;2022-09-09T01:13:45;100178.22;;;11.16;71.75
22031;BME280;11179;52.106;21.024;2022-09-09T01:16:13;100177.41;;;11.16;71.89
22031;BME280;11179;52.106;21.024;2022-09-09T01:18:51;100178.78;;;11.18;71.86
22031;BME280;11179;52.106;21.024;2022-09-09T01:24:27;100160.59;;;11.12;72.33
22031;BME280;11179;52.106;21.024;2022-09-09T01:26:58;100157.28;;;11.10;72.27
22031;BME280;11179;52.106;21.024;2022-09-09T01:29:25;100163.94;;;11.14;72.38
22031;BME280;11179;52.106;21.024;2022-09-09T01:31:54;100165.59;;;11.15;72.49
22031;BME280;11179;52.106;21.024;2022-09-09T01:34:22;100166.69;;;11.19;72.39
22031;BME280;11179;52.106;21.024;2022-09-09T01:37:08;100153.25;;;11.18;72.31
22031;BME280;11179;52.106;21.024;2022-09-09T01:39:35;100154.34;;;11.17;72.37
22031;BME280;11179;52.106;21.024;2022-09-09T01:42:03;100157.66;;;11.24;72.24
22031;BME280;11179;52.106;21.024;2022-09-09T01:44:30;100168.91;;;11.23;72.41
22031;BME280;11179;52.106;21.024;2022-09-09T01:46:56;100176.66;;;11.31;72.32
22031;BME280;11179;52.106;21.024;2022-09-09T01:49:22;100176.38;;;11.32;72.12
22031;BME280;11179;52.106;21.024;2022-09-09T01:51:50;100171.69;;;11.33;71.92
22031;BME280;11179;52.106;21.024;2022-09-09T01:54:18;100164.88;;;11.40;71.77
22031;BME280;11179;52.106;21.024;2022-09-09T01:56:47;100169.53;;;11.40;71.87
22031;BME280;11179;52.106;21.024;2022-09-09T01:59:42;100166.53;;;11.41;72.06
22031;BME280;11179;52.106;21.024;2022-09-09T02:02:18;100164.34;;;11.43;71.90
22031;BME280;11179;52.106;21.024;2022-09-09T02:04:47;100163.78;;;11.41;71.91
22031;BME280;11179;52.106;21.024;2022-09-09T02:10:07;100165.19;;;11.49;71.53
22031;BME280;11179;52.106;21.024;2022-09-09T02:12:35;100168.47;;;11.51;71.79
22031;BME280;11179;52.106;21.024;2022-09-09T02:15:07;100154.47;;;11.52;71.58
22031;BME280;11179;52.106;21.024;2022-09-09T02:17:37;100155.84;;;11.50;71.63
22031;BME280;11179;52.106;21.024;2022-09-09T02:20:12;100161.91;;;11.52;71.82
22031;BME280;11179;52.106;21.024;2022-09-09T02:22:39;100167.94;;;11.54;71.58
22031;BME280;11179;52.106;21.024;2022-09-09T02:25:08;100154.78;;;11.56;71.39
22031;BME280;11179;52.106;21.024;2022-09-09T02:27:35;100154.19;;;11.49;71.86
22031;BME280;11179;52.106;21.024;2022-09-09T02:30:02;100154.16;;;11.39;72.01
22031;BME280;11179;52.106;21.024;2022-09-09T02:32:29;100152.50;;;11.38;72.14
22031;BME280;11179;52.106;21.024;2022-09-09T02:35:04;100158.56;;;11.40;72.08
22031;BME280;11179;52.106;21.024;2022-09-09T02:37:38;100156.09;;;11.43;72.07
22031;BME280;11179;52.106;21.024;2022-09-09T02:40:10;100159.09;;;11.47;71.98
22031;BME280;11179;52.106;21.024;2022-09-09T02:42:45;100155.53;;;11.46;71.97
22031;BME280;11179;52.106;21.024;2022-09-09T02:45:14;100159.94;;;11.47;71.84
22031;BME280;11179;52.106;21.024;2022-09-09T02:50:34;100159.97;;;11.52;71.78
22031;BME280;11179;52.106;21.024;2022-09-09T02:54:04;100154.47;;;11.52;71.93
22031;BME280;11179;52.106;21.024;2022-09-09T02:56:15;100160.50;;;11.49;71.88
22031;BME280;11179;52.106;21.024;2022-09-09T02:58:42;100155.53;;;11.46;71.97
22031;BME280;11179;52.106;21.024;2022-09-09T03:01:07;100162.38;;;11.39;72.67
22031;BME280;11179;52.106;21.024;2022-09-09T03:03:33;100169.84;;;11.43;72.68
22031;BME280;11179;52.106;21.024;2022-09-09T03:05:59;100172.78;;;11.32;73.72
22031;BME280;11179;52.106;21.024;2022-09-09T03:08:25;100165.66;;;11.31;73.92
22031;BME280;11179;52.106;21.024;2022-09-09T03:10:51;100163.19;;;11.34;74.08
22031;BME280;11179;52.106;21.024;2022-09-09T03:13:19;100158.53;;;11.35;74.05
22031;BME280;11179;52.106;21.024;2022-09-09T03:15:44;100160.72;;;11.38;73.89
22031;BME280;11179;52.106;21.024;2022-09-09T03:18:10;100159.66;;;11.39;73.66
22031;BME280;11179;52.106;21.024;2022-09-09T03:20:35;100160.22;;;11.41;73.61
22031;BME280;11179;52.106;21.024;2022-09-09T03:23:01;100155.81;;;11.40;73.22
22031;BME280;11179;52.106;21.024;2022-09-09T03:25:27;100157.47;;;11.41;73.43
22031;BME280;11179;52.106;21.024;2022-09-09T03:27:54;100147.84;;;11.43;73.54
22031;BME280;11179;52.106;21.024;2022-09-09T03:30:24;100151.44;;;11.44;73.18
22031;BME280;11179;52.106;21.024;2022-09-09T03:32:50;100152.81;;;11.51;73.06
22031;BME280;11179;52.106;21.024;2022-09-09T03:35:15;100145.97;;;11.54;72.81
22031;BME280;11179;52.106;21.024;2022-09-09T03:37:41;100151.47;;;11.54;73.22
22031;BME280;11179;52.106;21.024;2022-09-09T03:40:07;100147.03;;;11.48;73.41
22031;BME280;11179;52.106;21.024;2022-09-09T03:42:35;100147.31;;;11.51;73.64
22031;BME280;11179;52.106;21.024;2022-09-09T03:45:05;100145.38;;;11.47;73.18
22031;BME280;11179;52.106;21.024;2022-09-09T03:47:30;100159.69;;;11.49;73.78
22031;BME280;11179;52.106;21.024;2022-09-09T03:49:56;100165.19;;;11.54;73.64
22031;BME280;11179;52.106;21.024;2022-09-09T03:52:21;100152.81;;;11.51;73.68
22031;BME280;11179;52.106;21.024;2022-09-09T03:54:50;100160.53;;;11.60;73.41
22031;BME280;11179;52.106;21.024;2022-09-09T03:57:16;100159.97;;;11.52;73.43
22031;BME280;11179;52.106;21.024;2022-09-09T03:59:42;100162.75;;;11.58;73.43
22031;BME280;11179;52.106;21.024;2022-09-09T04:02:08;100155.84;;;11.50;73.62
22031;BME280;11179;52.106;21.024;2022-09-09T04:04:34;100161.34;;;11.55;73.71
22031;BME280;11179;52.106;21.024;2022-09-09T04:06:59;100157.25;;;11.58;73.67
22031;BME280;11179;52.106;21.024;2022-09-09T04:09:25;100158.34;;;11.62;73.42
22031;BME280;11179;52.106;21.024;2022-09-09T04:11:50;100159.72;;;11.64;73.50
22031;BME280;11179;52.106;21.024;2022-09-09T04:14:15;100163.59;;;11.68;73.57
22031;BME280;11179;52.106;21.024;2022-09-09T04:16:41;100159.19;;;11.72;73.49
22031;BME280;11179;52.106;21.024;2022-09-09T04:19:10;100166.09;;;11.70;73.15
22031;BME280;11179;52.106;21.024;2022-09-09T04:21:38;100156.44;;;11.67;73.38
22031;BME280;11179;52.106;21.024;2022-09-09T04:24:05;100155.91;;;11.70;73.22
22031;BME280;11179;52.106;21.024;2022-09-09T04:26:31;100150.66;;;11.74;73.46
22031;BME280;11179;52.106;21.024;2022-09-09T04:28:56;100151.78;;;11.73;73.36
22031;BME280;11179;52.106;21.024;2022-09-09T04:31:22;100143.75;;;11.61;74.01
22031;BME280;11179;52.106;21.024;2022-09-09T04:33:52;100154.19;;;11.54;74.31
22031;BME280;11179;52.106;21.024;2022-09-09T04:36:18;100161.34;;;11.55;74.11
22031;BME280;11179;52.106;21.024;2022-09-09T04:38:45;100159.72;;;11.64;74.15
22031;BME280;11179;52.106;21.024;2022-09-09T04:41:10;100160.84;;;11.68;73.74
22031;BME280;11179;52.106;21.024;2022-09-09T04:43:37;100167.19;;;11.69;73.76
22031;BME280;11179;52.106;21.024;2022-09-09T04:46:04;100161.97;;;11.77;73.47
22031;BME280;11179;52.106;21.024;2022-09-09T04:48:29;100159.25;;;11.82;73.18
22031;BME280;11179;52.106;21.024;2022-09-09T04:51:06;100161.97;;;11.87;73.56
22031;BME280;11179;52.106;21.024;2022-09-09T04:53:34;100174.09;;;11.81;73.65
22031;BME280;11179;52.106;21.024;2022-09-09T04:56:12;100171.91;;;11.83;73.53
22031;BME280;11179;52.106;21.024;2022-09-09T04:58:39;100172.16;;;11.87;73.34
22031;BME280;11179;52.106;21.024;2022-09-09T05:01:15;100177.41;;;11.83;73.83
22031;BME280;11179;52.106;21.024;2022-09-09T05:03:42;100177.09;;;11.85;73.45
22031;BME280;11179;52.106;21.024;2022-09-09T05:06:10;100177.94;;;11.85;73.40
22031;BME280;11179;52.106;21.024;2022-09-09T05:08:37;100180.69;;;11.80;73.58
22031;BME280;11179;52.106;21.024;2022-09-09T05:11:16;100174.59;;;11.68;74.11
22031;BME280;11179;52.106;21.024;2022-09-09T05:13:42;100182.84;;;11.73;74.14
22031;BME280;11179;52.106;21.024;2022-09-09T05:16:08;100186.16;;;11.75;73.90
22031;BME280;11179;52.106;21.024;2022-09-09T05:18:35;100182.31;;;11.76;73.95
22031;BME280;11179;52.106;21.024;2022-09-09T05:21:02;100180.41;;;11.82;73.75
22031;BME280;11179;52.106;21.024;2022-09-09T05:23:27;100190.06;;;11.84;74.01
22031;BME280;11179;52.106;21.024;2022-09-09T05:25:57;100195.25;;;11.86;73.82
22031;BME280;11179;52.106;21.024;2022-09-09T05:28:24;100184.25;;;11.81;73.86
22031;BME280;11179;52.106;21.024;2022-09-09T05:31:01;100182.34;;;11.86;74.00
22031;BME280;11179;52.106;21.024;2022-09-09T05:33:29;100185.41;;;11.95;74.14
22031;BME280;11179;52.106;21.024;2022-09-09T05:35:59;100189.22;;;11.89;73.94
22031;BME280;11179;52.106;21.024;2022-09-09T05:38:25;100189.53;;;11.93;74.00
22031;BME280;11179;52.106;21.024;2022-09-09T05:40:52;100190.91;;;11.95;73.77
22031;BME280;11179;52.106;21.024;2022-09-09T05:43:18;100175.50;;;11.99;73.98
22031;BME280;11179;52.106;21.024;2022-09-09T05:45:46;100190.09;;;12.05;73.75
22031;BME280;11179;52.106;21.024;2022-09-09T05:48:13;100179.63;;;12.02;73.97
22031;BME280;11179;52.106;21.024;2022-09-09T05:50:40;100181.31;;;12.08;74.01
22031;BME280;11179;52.106;21.024;2022-09-09T05:53:05;100181.59;;;12.11;73.70
22031;BME280;11179;52.106;21.024;2022-09-09T05:55:31;100193.94;;;12.14;73.83
22031;BME280;11179;52.106;21.024;2022-09-09T05:57:56;100191.22;;;12.19;73.81
22031;BME280;11179;52.106;21.024;2022-09-09T06:00:21;100187.38;;;12.10;73.64
22031;BME280;11179;52.106;21.024;2022-09-09T06:02:51;100191.75;;;12.16;73.64
22031;BME280;11179;52.106;21.024;2022-09-09T06:05:17;100195.06;;;12.18;73.79
22031;BME280;11179;52.106;21.024;2022-09-09T06:07:43;100205.53;;;12.21;73.77
22031;BME280;11179;52.106;21.024;2022-09-09T06:10:10;100209.41;;;12.30;74.04
22031;BME280;11179;52.106;21.024;2022-09-09T06:12:35;100209.16;;;12.37;73.90
22031;BME280;11179;52.106;21.024;2022-09-09T06:15:01;100212.19;;;12.45;73.93
22031;BME280;11179;52.106;21.024;2022-09-09T06:17:26;100201.16;;;12.40;73.52
22031;BME280;11179;52.106;21.024;2022-09-09T06:19:51;100210.53;;;12.44;73.84
22031;BME280;11179;52.106;21.024;2022-09-09T06:22:17;100213.03;;;12.46;73.56
22031;BME280;11179;52.106;21.024;2022-09-09T06:24:42;100217.69;;;12.40;73.58
22031;BME280;11179;52.106;21.024;2022-09-09T06:27:08;100206.09;;;12.38;74.01
22031;BME280;11179;52.106;21.024;2022-09-09T06:29:34;100209.69;;;12.34;74.14
22031;BME280;11179;52.106;21.024;2022-09-09T06:31:59;100225.69;;;12.42;74.12
22031;BME280;11179;52.106;21.024;2022-09-09T06:34:25;100221.03;;;12.47;73.77
22031;BME280;11179;52.106;21.024;2022-09-09T06:36:51;100213.31;;;12.49;73.97
22031;BME280;11179;52.106;21.024;2022-09-09T06:39:17;100216.91;;;12.50;74.02
22031;BME280;11179;52.106;21.024;2022-09-09T06:41:42;100210.53;;;12.44;73.85
22031;BME280;11179;52.106;21.024;2022-09-09T06:44:07;100222.94;;;12.57;74.02
22031;BME280;11179;52.106;21.024;2022-09-09T06:46:33;100217.69;;;12.55;73.60
22031;BME280;11179;52.106;21.024;2022-09-09T06:49:00;100228.72;;;12.60;73.92
22031;BME280;11179;52.106;21.024;2022-09-09T06:51:30;100228.19;;;12.64;73.91
22031;BME280;11179;52.106;21.024;2022-09-09T06:53:58;100227.06;;;12.70;73.74
22031;BME280;11179;52.106;21.024;2022-09-09T06:56:26;100224.06;;;12.76;73.54
22031;BME280;11179;52.106;21.024;2022-09-09T06:58:54;100220.19;;;12.77;73.70
22031;BME280;11179;52.106;21.024;2022-09-09T07:01:28;100220.47;;;12.71;73.90
22031;BME280;11179;52.106;21.024;2022-09-09T07:03:55;100225.69;;;12.82;73.57
22031;BME280;11179;52.106;21.024;2022-09-09T07:06:23;100227.06;;;12.90;73.64
22031;BME280;11179;52.106;21.024;2022-09-09T07:08:51;100224.31;;;12.95;73.61
22031;BME280;11179;52.106;21.024;2022-09-09T07:11:18;100236.69;;;12.97;73.30
22031;BME280;11179;52.106;21.024;2022-09-09T07:13:43;100238.91;;;12.85;73.53
22031;BME280;11179;52.106;21.024;2022-09-09T07:16:11;100242.50;;;12.91;73.71
22031;BME280;11179;52.106;21.024;2022-09-09T07:18:38;100243.59;;;12.85;73.56
22031;BME280;11179;52.106;21.024;2022-09-09T07:21:04;100243.63;;;12.90;73.65
22031;BME280;11179;52.106;21.024;2022-09-09T07:23:30;100244.41;;;12.95;73.73
22031;BME280;11179;52.106;21.024;2022-09-09T07:25:56;100249.66;;;13.02;73.58
22031;BME280;11179;52.106;21.024;2022-09-09T07:28:23;100249.66;;;13.02;73.76
22031;BME280;11179;52.106;21.024;2022-09-09T07:30:56;100239.19;;;13.04;73.83
22031;BME280;11179;52.106;21.024;2022-09-09T07:33:23;100236.94;;;13.06;73.50
22031;BME280;11179;52.106;21.024;2022-09-09T07:35:49;100248.81;;;13.12;73.68
22031;BME280;11179;52.106;21.024;2022-09-09T07:38:14;100247.47;;;13.04;73.61
22031;BME280;11179;52.106;21.024;2022-09-09T07:40:40;100251.28;;;13.08;73.88
22031;BME280;11179;52.106;21.024;2022-09-09T07:43:05;100261.19;;;13.19;73.55
22031;BME280;11179;52.106;21.024;2022-09-09T07:45:31;100262.28;;;13.18;73.50
22031;BME280;11179;52.106;21.024;2022-09-09T07:47:58;100262.31;;;13.13;73.75
22031;BME280;11179;52.106;21.024;2022-09-09T07:50:24;100248.25;;;13.15;73.46
22031;BME280;11179;52.106;21.024;2022-09-09T07:52:50;100259.00;;;13.21;73.49
22031;BME280;11179;52.106;21.024;2022-09-09T07:55:17;100270.56;;;13.23;73.61
22031;BME280;11179;52.106;21.024;2022-09-09T07:57:42;100225.97;;;13.01;73.82
22031;BME280;11179;52.106;21.024;2022-09-09T08:00:08;100284.88;;;13.41;73.72
22031;BME280;11179;52.106;21.024;2022-09-09T08:02:35;100291.47;;;13.45;73.33
22031;BME280;11179;52.106;21.024;2022-09-09T08:05:01;100287.38;;;13.42;73.36
22031;BME280;11179;52.106;21.024;2022-09-09T08:07:26;100292.03;;;13.47;73.27
22031;BME280;11179;52.106;21.024;2022-09-09T08:09:52;100295.38;;;13.44;72.94
22031;BME280;11179;52.106;21.024;2022-09-09T08:12:19;100288.75;;;13.34;73.35
22031;BME280;11179;52.106;21.024;2022-09-09T08:14:44;100285.16;;;13.34;73.61
22031;BME280;11179;52.106;21.024;2022-09-09T08:17:10;100297.28;;;13.43;73.26
22031;BME280;11179;52.106;21.024;2022-09-09T08:19:35;100287.91;;;13.39;73.22
22031;BME280;11179;52.106;21.024;2022-09-09T08:22:01;100292.03;;;13.47;73.36
22031;BME280;11179;52.106;21.024;2022-09-09T08:24:28;100292.03;;;13.47;73.50
22031;BME280;11179;52.106;21.024;2022-09-09T08:26:53;100290.41;;;13.56;73.16
22031;BME280;11179;52.106;21.024;2022-09-09T08:29:19;100304.72;;;13.68;73.25
22031;BME280;11179;52.106;21.024;2022-09-09T08:31:47;100295.59;;;13.67;73.30
22031;BME280;11179;52.106;21.024;2022-09-09T08:34:13;100303.03;;;13.72;73.17
22031;BME280;11179;52.106;21.024;2022-09-09T08:36:42;100302.47;;;13.75;73.30
22031;BME280;11179;52.106;21.024;2022-09-09T08:39:09;100303.00;;;13.77;73.22
22031;BME280;11179;52.106;21.024;2022-09-09T08:47:15;100303.28;;;13.81;73.00
22031;BME280;11179;52.106;21.024;2022-09-09T08:55:52;100302.44;;;13.85;73.07
22031;BME280;11179;52.106;21.024;2022-09-09T08:58:22;100301.03;;;13.93;73.14
22031;BME280;11179;52.106;21.024;2022-09-09T09:09:02;100318.59;;;14.12;72.45
22031;BME280;11179;52.106;21.024;2022-09-09T09:11:38;100323.91;;;14.03;72.26
22031;BME280;11179;52.106;21.024;2022-09-09T09:14:31;100317.03;;;13.96;72.50
22031;BME280;11179;52.106;21.024;2022-09-09T09:17:20;100324.19;;;14.02;72.52
22031;BME280;11179;52.106;21.024;2022-09-09T09:19:48;100320.03;;;14.04;72.32
22031;BME280;11179;52.106;21.024;2022-09-09T09:22:35;100317.78;;;14.12;72.42
22031;BME280;11179;52.106;21.024;2022-09-09T09:25:15;100329.91;;;14.21;72.11
22031;BME280;11179;52.106;21.024;2022-09-09T09:28:31;100337.56;;;14.34;72.13
22031;BME280;11179;52.106;21.024;2022-09-09T09:30:36;100335.03;;;14.43;72.10
22031;BME280;11179;52.106;21.024;2022-09-09T09:33:46;100336.94;;;14.47;71.99
22031;BME280;11179;52.106;21.024;2022-09-09T09:36:13;100335.78;;;14.53;71.85
22031;BME280;11179;52.106;21.024;2022-09-09T09:39:01;100331.69;;;14.51;71.75
22031;BME280;11179;52.106;21.024;2022-09-09T09:41:33;100334.69;;;14.64;71.59
22031;BME280;11179;52.106;21.024;2022-09-09T09:43:59;100329.66;;;14.66;71.47
22031;BME280;11179;52.106;21.024;2022-09-09T09:46:26;100325.84;;;14.57;71.64
22031;BME280;11179;52.106;21.024;2022-09-09T09:49:17;100332.19;;;14.53;71.84
22031;BME280;11179;52.106;21.024;2022-09-09T09:51:43;100335.56;;;14.45;71.94
22031;BME280;11179;52.106;21.024;2022-09-09T09:56:48;100333.38;;;14.42;72.14
22031;BME280;11179;52.106;21.024;2022-09-09T09:59:22;100332.53;;;14.46;72.10
22031;BME280;11179;52.106;21.024;2022-09-09T10:01:47;100317.16;;;14.25;72.23
22031;BME280;11179;52.106;21.024;2022-09-09T10:04:17;100341.72;;;14.31;72.40
22031;BME280;11179;52.106;21.024;2022-09-09T10:06:44;100344.22;;;14.28;72.47
22031;BME280;11179;52.106;21.024;2022-09-09T10:09:22;100350.56;;;14.33;72.48
22031;BME280;11179;52.106;21.024;2022-09-09T10:12:04;100344.69;;;14.50;72.31
22031;BME280;11179;52.106;21.024;2022-09-09T10:14:39;100347.94;;;14.57;72.18
22031;BME280;11179;52.106;21.024;2022-09-09T10:17:37;100348.72;;;14.68;71.98
22031;BME280;11179;52.106;21.024;2022-09-09T10:22:35;100352.84;;;14.76;71.87
22031;BME280;11179;52.106;21.024;2022-09-09T10:38:45;100385.09;;;14.85;71.89
22031;BME280;11179;52.106;21.024;2022-09-09T10:43:56;100396.38;;;14.94;71.33
22031;BME280;11179;52.106;21.024;2022-09-09T10:51:53;100398.75;;;14.66;71.75
22031;BME280;11179;52.106;21.024;2022-09-09T10:57:03;100397.00;;;14.81;71.92
22031;BME280;11179;52.106;21.024;2022-09-09T10:59:52;100401.97;;;14.84;71.69
22031;BME280;11179;52.106;21.024;2022-09-09T11:02:27;100399.75;;;14.86;71.81
22031;BME280;11179;52.106;21.024;2022-09-09T11:04:57;100404.72;;;14.89;71.78
22031;BME280;11179;52.106;21.024;2022-09-09T11:07:35;100404.72;;;14.89;71.56
22031;BME280;11179;52.106;21.024;2022-09-09T11:10:20;100408.03;;;14.86;71.76
22031;BME280;11179;52.106;21.024;2022-09-09T11:12:48;100409.72;;;14.82;72.10
22031;BME280;11179;52.106;21.024;2022-09-09T11:15:20;100408.91;;;14.81;72.11
22031;BME280;11179;52.106;21.024;2022-09-09T11:17:56;100406.69;;;14.78;72.25
22031;BME280;11179;52.106;21.024;2022-09-09T11:20:25;100409.72;;;14.87;72.01
22031;BME280;11179;52.106;21.024;2022-09-09T11:23:04;100410.78;;;14.91;72.04
22031;BME280;11179;52.106;21.024;2022-09-09T11:25:36;100403.66;;;14.80;72.38
22031;BME280;11179;52.106;21.024;2022-09-09T11:36:54;100424.28;;;14.97;71.89
22031;BME280;11179;52.106;21.024;2022-09-09T11:44:41;100414.22;;;15.17;71.90
22031;BME280;11179;52.106;21.024;2022-09-09T11:47:23;100417.56;;;15.08;71.75
22031;BME280;11179;52.106;21.024;2022-09-09T11:49:52;100415.72;;;14.99;71.70
22031;BME280;11179;52.106;21.024;2022-09-09T11:52:36;100423.63;;;15.10;71.95
22031;BME280;11179;52.106;21.024;2022-09-09T11:55:10;100430.28;;;15.09;71.82
22031;BME280;11179;52.106;21.024;2022-09-09T11:57:37;100420.72;;;14.92;71.89
22031;BME280;11179;52.106;21.024;2022-09-09T12:00:04;100426.78;;;14.94;72.30
22031;BME280;11179;52.106;21.024;2022-09-09T12:02:30;100427.66;;;14.89;72.02
22031;BME280;11179;52.106;21.024;2022-09-09T12:05:07;100421.03;;;14.90;72.58
22031;BME280;11179;52.106;21.024;2022-09-09T12:10:32;100421.94;;;14.76;72.94
22031;BME280;11179;52.106;21.024;2022-09-09T12:13:19;100434.84;;;14.90;72.95
22031;BME280;11179;52.106;21.024;2022-09-09T12:15:56;100436.16;;;15.03;72.73
22031;BME280;11179;52.106;21.024;2022-09-09T12:24:11;100440.34;;;15.34;72.10
22031;BME280;11179;52.106;21.024;2022-09-09T12:26:55;100437.47;;;15.44;72.31
22031;BME280;11179;52.106;21.024;2022-09-09T12:29:29;100430.81;;;15.51;72.05
22031;BME280;11179;52.106;21.024;2022-09-09T12:32:25;100439.31;;;15.59;71.87
22031;BME280;11179;52.106;21.024;2022-09-09T12:35:03;100435.78;;;15.54;71.88
22031;BME280;11179;52.106;21.024;2022-09-09T12:42:39;100420.38;;;15.42;71.84
22031;BME280;11179;52.106;21.024;2022-09-09T12:45:16;100409.13;;;15.29;72.15
22031;BME280;11179;52.106;21.024;2022-09-09T12:50:32;100426.56;;;15.29;72.49
22031;BME280;11179;52.106;21.024;2022-09-09T12:53:02;100424.38;;;15.26;72.66
22031;BME280;11179;52.106;21.024;2022-09-09T12:55:31;100422.13;;;15.28;72.62
22031;BME280;11179;52.106;21.024;2022-09-09T12:57:59;100424.63;;;15.30;72.51
22031;BME280;11179;52.106;21.024;2022-09-09T13:00:26;100426.94;;;15.13;72.75
22031;BME280;11179;52.106;21.024;2022-09-09T13:02:57;100438.31;;;15.06;72.96
22031;BME280;11179;52.106;21.024;2022-09-09T13:05:28;100432.47;;;15.13;73.04
22031;BME280;11179;52.106;21.024;2022-09-09T13:08:08;100433.81;;;15.20;73.03
22031;BME280;11179;52.106;21.024;2022-09-09T13:10:47;100427.53;;;15.09;72.86
22031;BME280;11179;52.106;21.024;2022-09-09T13:13:22;100427.03;;;15.02;72.93
22031;BME280;11179;52.106;21.024;2022-09-09T13:15:50;100419.78;;;15.06;72.57
22031;BME280;11179;52.106;21.024;2022-09-09T13:18:18;100419.09;;;14.91;73.49
22031;BME280;11179;52.106;21.024;2022-09-09T13:20:48;100429.63;;;14.84;73.70
22031;BME280;11179;52.106;21.024;2022-09-09T13:23:15;100416.34;;;14.81;73.91
22031;BME280;11179;52.106;21.024;2022-09-09T13:25:53;100421.84;;;14.91;74.17
22031;BME280;11179;52.106;21.024;2022-09-09T13:28:22;100413.16;;;15.07;73.76
22031;BME280;11179;52.106;21.024;2022-09-09T13:31:04;100411.44;;;15.17;73.51
22031;BME280;11179;52.106;21.024;2022-09-09T13:33:39;100418.09;;;15.16;73.52
22031;BME280;11179;52.106;21.024;2022-09-09T13:36:10;100420.31;;;15.14;73.27
22031;BME280;11179;52.106;21.024;2022-09-09T13:41:19;100417.44;;;14.90;73.94
22031;BME280;11179;52.106;21.024;2022-09-09T13:43:47;100419.66;;;14.88;73.90
22031;BME280;11179;52.106;21.024;2022-09-09T13:46:32;100417.72;;;14.83;73.97
22031;BME280;11179;52.106;21.024;2022-09-09T13:49:00;100417.53;;;14.74;74.61
22031;BME280;11179;52.106;21.024;2022-09-09T13:51:34;100418.63;;;14.73;74.38
22031;BME280;11179;52.106;21.024;2022-09-09T13:54:00;100407.91;;;14.57;74.72
22031;BME280;11179;52.106;21.024;2022-09-09T13:56:26;100413.16;;;14.53;75.23
22031;BME280;11179;52.106;21.024;2022-09-09T13:58:52;100417.03;;;14.52;74.94
22031;BME280;11179;52.106;21.024;2022-09-09T14:01:17;100420.88;;;14.61;74.93
22031;BME280;11179;52.106;21.024;2022-09-09T14:03:42;100424.16;;;14.73;74.89
22031;BME280;11179;52.106;21.024;2022-09-09T14:06:09;100431.28;;;14.85;74.53
22031;BME280;11179;52.106;21.024;2022-09-09T14:08:35;100426.00;;;14.88;74.05
22031;BME280;11179;52.106;21.024;2022-09-09T14:11:03;100430.72;;;14.83;74.62
22031;BME280;11179;52.106;21.024;2022-09-09T14:13:29;100432.66;;;14.87;74.52
22031;BME280;11179;52.106;21.024;2022-09-09T14:15:54;100441.19;;;14.91;74.45
22031;BME280;11179;52.106;21.024;2022-09-09T14:18:19;100435.63;;;14.96;74.39
22031;BME280;11179;52.106;21.024;2022-09-09T14:20:47;100422.91;;;14.95;74.09
22031;BME280;11179;52.106;21.024;2022-09-09T14:23:13;100425.97;;;14.93;74.22
22031;BME280;11179;52.106;21.024;2022-09-09T14:25:43;100437.03;;;14.93;74.39
22031;BME280;11179;52.106;21.024;2022-09-09T14:28:10;100422.97;;;14.90;74.17
22031;BME280;11179;52.106;21.024;2022-09-09T14:30:37;100438.09;;;14.97;73.91
22031;BME280;11179;52.106;21.024;2022-09-09T14:33:03;100436.97;;;15.03;74.09
22031;BME280;11179;52.106;21.024;2022-09-09T14:35:28;100445.00;;;15.00;73.93
22031;BME280;11179;52.106;21.024;2022-09-09T14:37:53;100441.97;;;15.01;74.01
22031;BME280;11179;52.106;21.024;2022-09-09T14:40:20;100436.66;;;15.05;73.88
22031;BME280;11179;52.106;21.024;2022-09-09T14:42:45;100444.38;;;15.13;73.94
22031;BME280;11179;52.106;21.024;2022-09-09T14:45:11;100450.41;;;15.20;73.81
22031;BME280;11179;52.106;21.024;2022-09-09T14:47:36;100441.34;;;15.09;73.97
22031;BME280;11179;52.106;21.024;2022-09-09T14:50:04;100438.50;;;15.20;73.60